sensor_id;sensor_type;location;lat;lon;timestamp;P1;durP1;ratioP1;P2;durP2;ratioP2
1350;SDS011;669;50.206;9.998;2022-10-16T00:00:57;1.20;;;1.20;;
1350;SDS011;669;50.206;9.998;2022-10-16T00:03:25;1.77;;;1.67;;
1350;SDS011;669;50.206;9.998;2022-10-16T00:05:58;1.60;;;1.50;;
1350;SDS011;669;50.206;9.998;2022-10-16T00:08:26;1.37;;;1.30;;
1350;SDS011;669;50.206;9.998;2022-10-16T00:10:59;1.00;;;1.00;;
1350;SDS011;669;50.206;9.998;2022-10-16T00:13:28;1.30;;;1.30;;
1350;SDS011;669;50.206;9.998;2022-10-16T00:15:57;1.10;;;1.10;;
1350;SDS011;669;50.206;9.998;2022-10-16T00:18:26;0.90;;;0.90;;
1350;SDS011;669;50.206;9.998;2022-10-16T00:20:54;1.37;;;1.27;;
1350;SDS011;669;50.206;9.998;2022-10-16T00:23:22;1.63;;;1.30;;
1350;SDS011;669;50.206;9.998;2022-10-16T00:25:56;1.40;;;1.30;;
1350;SDS011;669;50.206;9.998;2022-10-16T00:28:27;1.33;;;1.23;;
1350;SDS011;669;50.206;9.998;2022-10-16T00:30:55;1.60;;;1.17;;
1350;SDS011;669;50.206;9.998;2022-10-16T00:33:23;1.20;;;1.10;;
1350;SDS011;669;50.206;9.998;2022-10-16T00:35:52;0.97;;;0.97;;
1350;SDS011;669;50.206;9.998;2022-10-16T00:38:20;1.50;;;1.10;;
1350;SDS011;669;50.206;9.998;2022-10-16T00:40:48;4.37;;;1.20;;
1350;SDS011;669;50.206;9.998;2022-10-16T00:46:08;1.73;;;1.40;;
1350;SDS011;669;50.206;9.998;2022-10-16T00:48:40;2.47;;;1.33;;
1350;SDS011;669;50.206;9.998;2022-10-16T00:51:12;1.20;;;1.10;;
1350;SDS011;669;50.206;9.998;2022-10-16T00:53:40;1.67;;;1.53;;
1350;SDS011;669;50.206;9.998;2022-10-16T00:56:08;1.80;;;1.20;;
1350;SDS011;669;50.206;9.998;2022-10-16T00:58:38;2.10;;;1.33;;
1350;SDS011;669;50.206;9.998;2022-10-16T01:01:06;3.30;;;1.57;;
1350;SDS011;669;50.206;9.998;2022-10-16T01:03:35;2.40;;;1.40;;
1350;SDS011;669;50.206;9.998;2022-10-16T01:06:11;1.67;;;1.57;;
1350;SDS011;669;50.206;9.998;2022-10-16T01:08:58;1.20;;;1.10;;
1350;SDS011;669;50.206;9.998;2022-10-16T01:11:33;1.23;;;1.23;;
1350;SDS011;669;50.206;9.998;2022-10-16T01:14:11;1.30;;;1.30;;
1350;SDS011;669;50.206;9.998;2022-10-16T01:16:47;1.47;;;1.30;;
1350;SDS011;669;50.206;9.998;2022-10-16T01:19:20;2.13;;;1.40;;
1350;SDS011;669;50.206;9.998;2022-10-16T01:22:00;1.20;;;1.20;;
1350;SDS011;669;50.206;9.998;2022-10-16T01:24:31;1.10;;;1.10;;
1350;SDS011;669;50.206;9.998;2022-10-16T01:27:08;3.03;;;2.00;;
1350;SDS011;669;50.206;9.998;2022-10-16T01:29:39;2.00;;;1.80;;
1350;SDS011;669;50.206;9.998;2022-10-16T01:32:15;1.60;;;1.50;;
1350;SDS011;669;50.206;9.998;2022-10-16T01:34:47;1.87;;;1.63;;
1350;SDS011;669;50.206;9.998;2022-10-16T01:37:20;2.77;;;1.60;;
1350;SDS011;669;50.206;9.998;2022-10-16T01:39:55;2.67;;;1.80;;
1350;SDS011;669;50.206;9.998;2022-10-16T01:42:30;2.17;;;2.07;;
1350;SDS011;669;50.206;9.998;2022-10-16T01:45:02;1.83;;;1.73;;
1350;SDS011;669;50.206;9.998;2022-10-16T01:47:34;1.80;;;1.80;;
1350;SDS011;669;50.206;9.998;2022-10-16T01:50:03;3.03;;;2.20;;
1350;SDS011;669;50.206;9.998;2022-10-16T01:52:33;2.30;;;2.20;;
1350;SDS011;669;50.206;9.998;2022-10-16T01:55:04;2.03;;;1.93;;
1350;SDS011;669;50.206;9.998;2022-10-16T01:57:37;4.63;;;1.70;;
1350;SDS011;669;50.206;9.998;2022-10-16T02:00:09;2.43;;;2.30;;
1350;SDS011;669;50.206;9.998;2022-10-16T02:02:39;3.57;;;1.63;;
1350;SDS011;669;50.206;9.998;2022-10-16T02:05:11;1.43;;;1.40;;
1350;SDS011;669;50.206;9.998;2022-10-16T02:07:43;1.57;;;1.47;;
1350;SDS011;669;50.206;9.998;2022-10-16T02:10:11;1.50;;;1.40;;
1350;SDS011;669;50.206;9.998;2022-10-16T02:12:41;1.60;;;1.50;;
1350;SDS011;669;50.206;9.998;2022-10-16T02:15:13;2.00;;;1.80;;
1350;SDS011;669;50.206;9.998;2022-10-16T02:17:41;2.77;;;1.20;;
1350;SDS011;669;50.206;9.998;2022-10-16T02:20:09;1.90;;;1.80;;
1350;SDS011;669;50.206;9.998;2022-10-16T02:22:38;1.37;;;1.37;;
1350;SDS011;669;50.206;9.998;2022-10-16T02:25:09;3.37;;;1.30;;
1350;SDS011;669;50.206;9.998;2022-10-16T02:27:47;1.20;;;1.20;;
1350;SDS011;669;50.206;9.998;2022-10-16T02:30:21;1.23;;;1.13;;
1350;SDS011;669;50.206;9.998;2022-10-16T02:32:54;0.97;;;0.97;;
1350;SDS011;669;50.206;9.998;2022-10-16T02:35:25;1.33;;;1.30;;
1350;SDS011;669;50.206;9.998;2022-10-16T02:37:54;1.13;;;0.70;;
1350;SDS011;669;50.206;9.998;2022-10-16T02:40:24;1.07;;;1.00;;
1350;SDS011;669;50.206;9.998;2022-10-16T02:42:55;1.60;;;1.00;;
1350;SDS011;669;50.206;9.998;2022-10-16T02:45:23;3.90;;;0.90;;
1350;SDS011;669;50.206;9.998;2022-10-16T02:47:51;2.80;;;1.27;;
1350;SDS011;669;50.206;9.998;2022-10-16T02:50:19;1.20;;;1.20;;
1350;SDS011;669;50.206;9.998;2022-10-16T02:52:48;1.33;;;1.13;;
1350;SDS011;669;50.206;9.998;2022-10-16T02:55:16;0.93;;;0.93;;
1350;SDS011;669;50.206;9.998;2022-10-16T02:57:44;1.03;;;1.03;;
1350;SDS011;669;50.206;9.998;2022-10-16T03:00:15;0.90;;;0.90;;
1350;SDS011;669;50.206;9.998;2022-10-16T03:02:44;1.20;;;0.77;;
1350;SDS011;669;50.206;9.998;2022-10-16T03:05:12;1.37;;;1.37;;
1350;SDS011;669;50.206;9.998;2022-10-16T03:07:41;0.93;;;0.93;;
1350;SDS011;669;50.206;9.998;2022-10-16T03:10:09;1.00;;;1.00;;
1350;SDS011;669;50.206;9.998;2022-10-16T03:12:37;0.87;;;0.60;;
1350;SDS011;669;50.206;9.998;2022-10-16T03:15:05;1.33;;;0.93;;
1350;SDS011;669;50.206;9.998;2022-10-16T03:17:35;1.60;;;1.23;;
1350;SDS011;669;50.206;9.998;2022-10-16T03:20:03;0.97;;;0.97;;
1350;SDS011;669;50.206;9.998;2022-10-16T03:22:32;1.17;;;1.17;;
1350;SDS011;669;50.206;9.998;2022-10-16T03:25:00;0.90;;;0.90;;
1350;SDS011;669;50.206;9.998;2022-10-16T03:27:28;0.90;;;0.83;;
1350;SDS011;669;50.206;9.998;2022-10-16T03:29:56;0.90;;;0.90;;
1350;SDS011;669;50.206;9.998;2022-10-16T03:32:24;0.70;;;0.70;;
1350;SDS011;669;50.206;9.998;2022-10-16T03:34:53;0.90;;;0.90;;
1350;SDS011;669;50.206;9.998;2022-10-16T03:37:22;1.53;;;1.10;;
1350;SDS011;669;50.206;9.998;2022-10-16T03:39:51;0.70;;;0.70;;
1350;SDS011;669;50.206;9.998;2022-10-16T03:42:19;2.23;;;1.20;;
1350;SDS011;669;50.206;9.998;2022-10-16T03:44:47;1.00;;;0.90;;
1350;SDS011;669;50.206;9.998;2022-10-16T03:47:15;1.50;;;1.40;;
1350;SDS011;669;50.206;9.998;2022-10-16T03:49:47;1.03;;;1.00;;
1350;SDS011;669;50.206;9.998;2022-10-16T03:52:16;0.80;;;0.80;;
1350;SDS011;669;50.206;9.998;2022-10-16T03:54:49;1.03;;;0.80;;
1350;SDS011;669;50.206;9.998;2022-10-16T03:57:17;0.90;;;0.90;;
1350;SDS011;669;50.206;9.998;2022-10-16T03:59:46;1.67;;;1.57;;
1350;SDS011;669;50.206;9.998;2022-10-16T04:02:14;1.30;;;0.70;;
1350;SDS011;669;50.206;9.998;2022-10-16T04:04:42;0.70;;;0.70;;
1350;SDS011;669;50.206;9.998;2022-10-16T04:07:10;1.43;;;1.00;;
1350;SDS011;669;50.206;9.998;2022-10-16T04:09:39;1.10;;;1.03;;
1350;SDS011;669;50.206;9.998;2022-10-16T04:12:08;1.00;;;1.00;;
1350;SDS011;669;50.206;9.998;2022-10-16T04:14:35;0.80;;;0.80;;
1350;SDS011;669;50.206;9.998;2022-10-16T04:17:03;0.97;;;0.93;;
1350;SDS011;669;50.206;9.998;2022-10-16T04:19:31;1.00;;;1.00;;
1350;SDS011;669;50.206;9.998;2022-10-16T04:21:59;1.00;;;1.00;;
1350;SDS011;669;50.206;9.998;2022-10-16T04:24:27;1.90;;;1.07;;
1350;SDS011;669;50.206;9.998;2022-10-16T04:26:56;0.77;;;0.70;;
1350;SDS011;669;50.206;9.998;2022-10-16T04:29:25;0.80;;;0.80;;
1350;SDS011;669;50.206;9.998;2022-10-16T04:31:53;1.27;;;0.83;;
1350;SDS011;669;50.206;9.998;2022-10-16T04:34:21;1.00;;;1.00;;
1350;SDS011;669;50.206;9.998;2022-10-16T04:36:49;0.73;;;0.73;;
1350;SDS011;669;50.206;9.998;2022-10-16T04:39:17;0.90;;;0.90;;
1350;SDS011;669;50.206;9.998;2022-10-16T04:41:45;0.90;;;0.90;;
1350;SDS011;669;50.206;9.998;2022-10-16T04:44:14;1.07;;;1.07;;
1350;SDS011;669;50.206;9.998;2022-10-16T04:46:42;1.10;;;1.10;;
1350;SDS011;669;50.206;9.998;2022-10-16T04:49:11;0.67;;;0.67;;
1350;SDS011;669;50.206;9.998;2022-10-16T04:51:38;1.10;;;1.10;;
1350;SDS011;669;50.206;9.998;2022-10-16T04:54:06;1.00;;;1.00;;
1350;SDS011;669;50.206;9.998;2022-10-16T04:56:35;1.30;;;1.30;;
1350;SDS011;669;50.206;9.998;2022-10-16T04:59:13;1.70;;;1.60;;
1350;SDS011;669;50.206;9.998;2022-10-16T05:01:42;1.60;;;1.50;;
1350;SDS011;669;50.206;9.998;2022-10-16T05:04:10;1.23;;;1.23;;
1350;SDS011;669;50.206;9.998;2022-10-16T05:06:38;3.33;;;1.53;;
1350;SDS011;669;50.206;9.998;2022-10-16T05:09:06;1.30;;;1.20;;
1350;SDS011;669;50.206;9.998;2022-10-16T05:11:35;1.73;;;1.63;;
1350;SDS011;669;50.206;9.998;2022-10-16T05:14:03;1.53;;;1.43;;
1350;SDS011;669;50.206;9.998;2022-10-16T05:16:32;1.20;;;1.20;;
1350;SDS011;669;50.206;9.998;2022-10-16T05:19:00;1.47;;;1.37;;
1350;SDS011;669;50.206;9.998;2022-10-16T05:21:48;1.73;;;1.00;;
1350;SDS011;669;50.206;9.998;2022-10-16T05:24:16;1.30;;;1.30;;
1350;SDS011;669;50.206;9.998;2022-10-16T05:26:44;1.47;;;1.40;;
1350;SDS011;669;50.206;9.998;2022-10-16T05:29:12;1.90;;;1.10;;
1350;SDS011;669;50.206;9.998;2022-10-16T05:31:41;1.23;;;1.23;;
1350;SDS011;669;50.206;9.998;2022-10-16T05:34:09;0.83;;;0.83;;
1350;SDS011;669;50.206;9.998;2022-10-16T05:36:37;0.97;;;0.97;;
1350;SDS011;669;50.206;9.998;2022-10-16T05:39:05;1.07;;;1.00;;
1350;SDS011;669;50.206;9.998;2022-10-16T05:41:33;1.17;;;1.03;;
1350;SDS011;669;50.206;9.998;2022-10-16T05:44:03;1.43;;;1.40;;
1350;SDS011;669;50.206;9.998;2022-10-16T05:46:31;1.30;;;1.30;;
1350;SDS011;669;50.206;9.998;2022-10-16T05:49:01;0.83;;;0.83;;
1350;SDS011;669;50.206;9.998;2022-10-16T05:51:29;0.90;;;0.90;;
1350;SDS011;669;50.206;9.998;2022-10-16T05:53:57;0.93;;;0.93;;
1350;SDS011;669;50.206;9.998;2022-10-16T05:56:25;0.93;;;0.93;;
1350;SDS011;669;50.206;9.998;2022-10-16T05:58:53;1.00;;;1.00;;
1350;SDS011;669;50.206;9.998;2022-10-16T06:01:20;1.20;;;1.20;;
1350;SDS011;669;50.206;9.998;2022-10-16T06:03:50;1.30;;;1.30;;
1350;SDS011;669;50.206;9.998;2022-10-16T06:06:21;1.30;;;1.30;;
1350;SDS011;669;50.206;9.998;2022-10-16T06:08:52;1.80;;;1.70;;
1350;SDS011;669;50.206;9.998;2022-10-16T06:11:22;1.70;;;1.60;;
1350;SDS011;669;50.206;9.998;2022-10-16T06:13:51;3.57;;;3.37;;
1350;SDS011;669;50.206;9.998;2022-10-16T06:16:20;3.43;;;3.23;;
1350;SDS011;669;50.206;9.998;2022-10-16T06:18:50;3.30;;;3.10;;
1350;SDS011;669;50.206;9.998;2022-10-16T06:21:20;3.17;;;3.07;;
1350;SDS011;669;50.206;9.998;2022-10-16T06:23:51;2.73;;;2.63;;
1350;SDS011;669;50.206;9.998;2022-10-16T06:26:20;2.63;;;2.53;;
1350;SDS011;669;50.206;9.998;2022-10-16T06:28:49;3.10;;;2.90;;
1350;SDS011;669;50.206;9.998;2022-10-16T06:31:17;2.20;;;2.10;;
1350;SDS011;669;50.206;9.998;2022-10-16T06:33:45;2.20;;;2.10;;
1350;SDS011;669;50.206;9.998;2022-10-16T06:36:17;2.87;;;2.67;;
1350;SDS011;669;50.206;9.998;2022-10-16T06:38:46;2.20;;;2.10;;
1350;SDS011;669;50.206;9.998;2022-10-16T06:41:15;1.93;;;1.83;;
1350;SDS011;669;50.206;9.998;2022-10-16T06:43:44;2.20;;;2.10;;
1350;SDS011;669;50.206;9.998;2022-10-16T06:46:14;2.20;;;2.10;;
1350;SDS011;669;50.206;9.998;2022-10-16T06:48:43;2.17;;;2.03;;
1350;SDS011;669;50.206;9.998;2022-10-16T06:51:12;1.67;;;1.57;;
1350;SDS011;669;50.206;9.998;2022-10-16T06:53:42;1.67;;;1.67;;
1350;SDS011;669;50.206;9.998;2022-10-16T06:56:30;1.50;;;1.40;;
1350;SDS011;669;50.206;9.998;2022-10-16T06:58:59;1.73;;;1.63;;
1350;SDS011;669;50.206;9.998;2022-10-16T07:01:27;1.10;;;1.10;;
1350;SDS011;669;50.206;9.998;2022-10-16T07:03:55;1.60;;;1.60;;
1350;SDS011;669;50.206;9.998;2022-10-16T07:06:24;1.10;;;1.10;;
1350;SDS011;669;50.206;9.998;2022-10-16T07:08:53;1.43;;;1.40;;
1350;SDS011;669;50.206;9.998;2022-10-16T07:11:22;1.83;;;1.80;;
1350;SDS011;669;50.206;9.998;2022-10-16T07:13:52;1.93;;;1.83;;
1350;SDS011;669;50.206;9.998;2022-10-16T07:16:22;1.33;;;1.33;;
1350;SDS011;669;50.206;9.998;2022-10-16T07:18:52;2.00;;;1.90;;
1350;SDS011;669;50.206;9.998;2022-10-16T07:21:24;1.20;;;1.20;;
1350;SDS011;669;50.206;9.998;2022-10-16T07:23:55;1.60;;;1.50;;
1350;SDS011;669;50.206;9.998;2022-10-16T07:26:25;2.17;;;2.00;;
1350;SDS011;669;50.206;9.998;2022-10-16T07:28:55;1.87;;;1.77;;
1350;SDS011;669;50.206;9.998;2022-10-16T07:31:24;1.50;;;1.50;;
1350;SDS011;669;50.206;9.998;2022-10-16T07:33:52;1.80;;;1.70;;
1350;SDS011;669;50.206;9.998;2022-10-16T07:36:21;1.93;;;1.73;;
1350;SDS011;669;50.206;9.998;2022-10-16T07:38:49;3.17;;;1.97;;
1350;SDS011;669;50.206;9.998;2022-10-16T07:41:22;1.53;;;1.43;;
1350;SDS011;669;50.206;9.998;2022-10-16T07:43:51;1.50;;;1.40;;
1350;SDS011;669;50.206;9.998;2022-10-16T07:46:22;1.70;;;1.60;;
1350;SDS011;669;50.206;9.998;2022-10-16T07:48:50;1.47;;;1.47;;
1350;SDS011;669;50.206;9.998;2022-10-16T07:51:19;2.07;;;1.27;;
1350;SDS011;669;50.206;9.998;2022-10-16T07:53:48;1.67;;;1.57;;
1350;SDS011;669;50.206;9.998;2022-10-16T07:56:17;1.53;;;1.53;;
1350;SDS011;669;50.206;9.998;2022-10-16T07:58:46;2.10;;;2.00;;
1350;SDS011;669;50.206;9.998;2022-10-16T08:01:16;2.33;;;1.60;;
1350;SDS011;669;50.206;9.998;2022-10-16T08:03:46;1.07;;;1.07;;
1350;SDS011;669;50.206;9.998;2022-10-16T08:06:16;1.50;;;1.43;;
1350;SDS011;669;50.206;9.998;2022-10-16T08:08:50;6.53;;;2.50;;
1350;SDS011;669;50.206;9.998;2022-10-16T08:11:18;3.30;;;1.90;;
1350;SDS011;669;50.206;9.998;2022-10-16T08:13:46;1.60;;;1.50;;
1350;SDS011;669;50.206;9.998;2022-10-16T08:16:14;2.03;;;1.93;;
1350;SDS011;669;50.206;9.998;2022-10-16T08:18:43;1.37;;;1.27;;
1350;SDS011;669;50.206;9.998;2022-10-16T08:21:14;2.83;;;1.20;;
1350;SDS011;669;50.206;9.998;2022-10-16T08:23:46;1.63;;;1.53;;
1350;SDS011;669;50.206;9.998;2022-10-16T08:26:22;1.90;;;1.80;;
1350;SDS011;669;50.206;9.998;2022-10-16T08:28:50;1.23;;;1.10;;
1350;SDS011;669;50.206;9.998;2022-10-16T08:31:18;1.43;;;1.43;;
1350;SDS011;669;50.206;9.998;2022-10-16T08:33:47;1.50;;;1.47;;
1350;SDS011;669;50.206;9.998;2022-10-16T08:36:16;1.47;;;1.47;;
1350;SDS011;669;50.206;9.998;2022-10-16T08:38:46;2.00;;;1.60;;
1350;SDS011;669;50.206;9.998;2022-10-16T08:47:21;1.40;;;1.30;;
1350;SDS011;669;50.206;9.998;2022-10-16T08:49:55;1.20;;;1.10;;
1350;SDS011;669;50.206;9.998;2022-10-16T08:52:28;4.27;;;1.70;;
1350;SDS011;669;50.206;9.998;2022-10-16T08:54:58;1.50;;;1.40;;
1350;SDS011;669;50.206;9.998;2022-10-16T08:57:26;1.60;;;1.50;;
1350;SDS011;669;50.206;9.998;2022-10-16T08:59:54;1.33;;;1.20;;
1350;SDS011;669;50.206;9.998;2022-10-16T09:02:29;6.60;;;1.80;;
1350;SDS011;669;50.206;9.998;2022-10-16T09:05:17;3.13;;;1.60;;
1350;SDS011;669;50.206;9.998;2022-10-16T09:07:57;1.40;;;1.40;;
1350;SDS011;669;50.206;9.998;2022-10-16T09:10:40;1.50;;;1.40;;
1350;SDS011;669;50.206;9.998;2022-10-16T09:13:15;2.40;;;2.10;;
1350;SDS011;669;50.206;9.998;2022-10-16T09:15:52;5.23;;;3.10;;
1350;SDS011;669;50.206;9.998;2022-10-16T09:18:27;2.00;;;1.90;;
1350;SDS011;669;50.206;9.998;2022-10-16T09:21:01;2.30;;;2.07;;
1350;SDS011;669;50.206;9.998;2022-10-16T09:23:36;2.67;;;1.77;;
1350;SDS011;669;50.206;9.998;2022-10-16T09:26:05;4.67;;;1.57;;
1350;SDS011;669;50.206;9.998;2022-10-16T09:28:38;3.07;;;1.80;;
1350;SDS011;669;50.206;9.998;2022-10-16T09:31:09;3.60;;;2.10;;
1350;SDS011;669;50.206;9.998;2022-10-16T09:33:42;1.40;;;1.30;;
1350;SDS011;669;50.206;9.998;2022-10-16T09:36:12;1.73;;;1.63;;
1350;SDS011;669;50.206;9.998;2022-10-16T09:38:42;2.00;;;1.90;;
1350;SDS011;669;50.206;9.998;2022-10-16T09:41:13;2.50;;;2.23;;
1350;SDS011;669;50.206;9.998;2022-10-16T09:43:46;1.60;;;1.30;;
1350;SDS011;669;50.206;9.998;2022-10-16T09:46:24;3.03;;;1.50;;
1350;SDS011;669;50.206;9.998;2022-10-16T09:48:55;3.43;;;1.90;;
1350;SDS011;669;50.206;9.998;2022-10-16T09:51:25;8.73;;;2.10;;
1350;SDS011;669;50.206;9.998;2022-10-16T09:53:57;2.80;;;2.10;;
1350;SDS011;669;50.206;9.998;2022-10-16T09:56:27;5.83;;;1.83;;
1350;SDS011;669;50.206;9.998;2022-10-16T09:58:56;2.03;;;1.83;;
1350;SDS011;669;50.206;9.998;2022-10-16T10:01:29;1.70;;;1.60;;
1350;SDS011;669;50.206;9.998;2022-10-16T10:03:58;1.90;;;1.80;;
1350;SDS011;669;50.206;9.998;2022-10-16T10:06:29;1.60;;;1.50;;
1350;SDS011;669;50.206;9.998;2022-10-16T10:09:02;4.80;;;2.00;;
1350;SDS011;669;50.206;9.998;2022-10-16T10:11:47;2.40;;;1.80;;
1350;SDS011;669;50.206;9.998;2022-10-16T10:14:18;5.23;;;2.23;;
1350;SDS011;669;50.206;9.998;2022-10-16T10:16:49;2.47;;;2.27;;
1350;SDS011;669;50.206;9.998;2022-10-16T10:19:19;5.37;;;1.80;;
1350;SDS011;669;50.206;9.998;2022-10-16T10:21:52;2.60;;;2.30;;
1350;SDS011;669;50.206;9.998;2022-10-16T10:24:21;2.37;;;2.00;;
1350;SDS011;669;50.206;9.998;2022-10-16T10:26:51;2.97;;;1.83;;
1350;SDS011;669;50.206;9.998;2022-10-16T10:29:28;2.30;;;2.10;;
1350;SDS011;669;50.206;9.998;2022-10-16T10:32:09;2.33;;;2.17;;
1350;SDS011;669;50.206;9.998;2022-10-16T10:34:50;2.30;;;2.10;;
1350;SDS011;669;50.206;9.998;2022-10-16T10:37:32;4.00;;;2.10;;
1350;SDS011;669;50.206;9.998;2022-10-16T10:40:15;3.77;;;2.27;;
1350;SDS011;669;50.206;9.998;2022-10-16T10:42:51;1.77;;;1.67;;
1350;SDS011;669;50.206;9.998;2022-10-16T10:45:26;4.83;;;2.53;;
1350;SDS011;669;50.206;9.998;2022-10-16T10:48:01;2.20;;;2.10;;
1350;SDS011;669;50.206;9.998;2022-10-16T10:50:41;4.23;;;2.40;;
1350;SDS011;669;50.206;9.998;2022-10-16T10:53:18;1.63;;;1.53;;
1350;SDS011;669;50.206;9.998;2022-10-16T10:55:57;3.40;;;2.07;;
1350;SDS011;669;50.206;9.998;2022-10-16T10:58:39;2.80;;;1.70;;
1350;SDS011;669;50.206;9.998;2022-10-16T11:01:26;1.97;;;1.80;;
1350;SDS011;669;50.206;9.998;2022-10-16T11:04:18;1.70;;;1.60;;
1350;SDS011;669;50.206;9.998;2022-10-16T11:07:02;5.73;;;1.80;;
1350;SDS011;669;50.206;9.998;2022-10-16T11:09:33;2.30;;;1.63;;
1350;SDS011;669;50.206;9.998;2022-10-16T11:12:07;1.97;;;1.70;;
1350;SDS011;669;50.206;9.998;2022-10-16T11:14:40;8.33;;;2.47;;
1350;SDS011;669;50.206;9.998;2022-10-16T11:17:13;4.10;;;1.57;;
1350;SDS011;669;50.206;9.998;2022-10-16T11:19:46;1.40;;;1.30;;
1350;SDS011;669;50.206;9.998;2022-10-16T11:22:19;1.70;;;1.30;;
1350;SDS011;669;50.206;9.998;2022-10-16T11:24:51;1.43;;;1.20;;
1350;SDS011;669;50.206;9.998;2022-10-16T11:27:26;1.57;;;1.47;;
1350;SDS011;669;50.206;9.998;2022-10-16T11:30:01;2.57;;;1.40;;
1350;SDS011;669;50.206;9.998;2022-10-16T11:32:33;1.73;;;1.63;;
1350;SDS011;669;50.206;9.998;2022-10-16T11:35:11;1.03;;;1.03;;
1350;SDS011;669;50.206;9.998;2022-10-16T11:37:45;1.70;;;1.60;;
1350;SDS011;669;50.206;9.998;2022-10-16T11:40:19;2.63;;;1.27;;
1350;SDS011;669;50.206;9.998;2022-10-16T11:42:54;2.17;;;1.57;;
1350;SDS011;669;50.206;9.998;2022-10-16T11:45:29;2.67;;;1.53;;
1350;SDS011;669;50.206;9.998;2022-10-16T11:48:04;1.50;;;0.77;;
1350;SDS011;669;50.206;9.998;2022-10-16T11:50:40;2.47;;;1.23;;
1350;SDS011;669;50.206;9.998;2022-10-16T11:53:16;2.60;;;1.30;;
1350;SDS011;669;50.206;9.998;2022-10-16T11:55:51;1.50;;;1.40;;
1350;SDS011;669;50.206;9.998;2022-10-16T11:58:22;1.33;;;1.33;;
1350;SDS011;669;50.206;9.998;2022-10-16T12:00:56;1.40;;;1.10;;
1350;SDS011;669;50.206;9.998;2022-10-16T12:03:30;1.30;;;1.30;;
1350;SDS011;669;50.206;9.998;2022-10-16T12:06:10;1.20;;;1.10;;
1350;SDS011;669;50.206;9.998;2022-10-16T12:08:44;1.63;;;1.10;;
1350;SDS011;669;50.206;9.998;2022-10-16T12:11:31;1.20;;;1.20;;
1350;SDS011;669;50.206;9.998;2022-10-16T12:14:07;4.10;;;1.40;;
1350;SDS011;669;50.206;9.998;2022-10-16T12:17:23;2.30;;;1.73;;
1350;SDS011;669;50.206;9.998;2022-10-16T12:20:00;1.23;;;1.10;;
1350;SDS011;669;50.206;9.998;2022-10-16T12:22:41;2.07;;;1.53;;
1350;SDS011;669;50.206;9.998;2022-10-16T12:25:20;4.73;;;1.40;;
1350;SDS011;669;50.206;9.998;2022-10-16T12:28:00;1.00;;;1.00;;
1350;SDS011;669;50.206;9.998;2022-10-16T12:30:32;2.17;;;1.60;;
1350;SDS011;669;50.206;9.998;2022-10-16T12:33:02;1.93;;;1.77;;
1350;SDS011;669;50.206;9.998;2022-10-16T12:35:33;0.83;;;0.83;;
1350;SDS011;669;50.206;9.998;2022-10-16T12:38:14;2.57;;;1.20;;
1350;SDS011;669;50.206;9.998;2022-10-16T12:40:44;1.30;;;1.20;;
1350;SDS011;669;50.206;9.998;2022-10-16T12:43:26;3.03;;;1.37;;
1350;SDS011;669;50.206;9.998;2022-10-16T12:46:04;2.00;;;0.93;;
1350;SDS011;669;50.206;9.998;2022-10-16T12:48:47;1.10;;;1.10;;
1350;SDS011;669;50.206;9.998;2022-10-16T12:51:33;0.83;;;0.83;;
1350;SDS011;669;50.206;9.998;2022-10-16T12:54:04;1.83;;;1.00;;
1350;SDS011;669;50.206;9.998;2022-10-16T12:56:41;2.37;;;1.20;;
1350;SDS011;669;50.206;9.998;2022-10-16T12:59:20;0.80;;;0.60;;
1350;SDS011;669;50.206;9.998;2022-10-16T13:02:01;1.17;;;0.83;;
1350;SDS011;669;50.206;9.998;2022-10-16T13:04:53;3.43;;;0.70;;
1350;SDS011;669;50.206;9.998;2022-10-16T13:07:35;0.90;;;0.90;;
1350;SDS011;669;50.206;9.998;2022-10-16T13:10:18;1.07;;;0.90;;
1350;SDS011;669;50.206;9.998;2022-10-16T13:12:57;6.60;;;1.20;;
1350;SDS011;669;50.206;9.998;2022-10-16T13:15:52;1.73;;;0.93;;
1350;SDS011;669;50.206;9.998;2022-10-16T13:18:38;0.83;;;0.83;;
1350;SDS011;669;50.206;9.998;2022-10-16T13:21:21;1.37;;;1.00;;
1350;SDS011;669;50.206;9.998;2022-10-16T13:23:59;0.87;;;0.87;;
1350;SDS011;669;50.206;9.998;2022-10-16T13:26:37;0.93;;;0.83;;
1350;SDS011;669;50.206;9.998;2022-10-16T13:29:12;2.27;;;0.93;;
1350;SDS011;669;50.206;9.998;2022-10-16T13:31:40;0.77;;;0.77;;
1350;SDS011;669;50.206;9.998;2022-10-16T13:34:13;1.83;;;0.90;;
1350;SDS011;669;50.206;9.998;2022-10-16T13:36:44;0.80;;;0.80;;
1350;SDS011;669;50.206;9.998;2022-10-16T13:39:20;1.17;;;0.70;;
1350;SDS011;669;50.206;9.998;2022-10-16T13:41:58;0.80;;;0.80;;
1350;SDS011;669;50.206;9.998;2022-10-16T13:44:35;1.40;;;1.00;;
1350;SDS011;669;50.206;9.998;2022-10-16T13:47:10;1.10;;;1.10;;
1350;SDS011;669;50.206;9.998;2022-10-16T13:49:45;4.33;;;1.57;;
1350;SDS011;669;50.206;9.998;2022-10-16T13:52:17;0.83;;;0.67;;
1350;SDS011;669;50.206;9.998;2022-10-16T13:54:46;1.63;;;0.90;;
1350;SDS011;669;50.206;9.998;2022-10-16T13:57:15;5.77;;;0.77;;
1350;SDS011;669;50.206;9.998;2022-10-16T13:59:59;0.77;;;0.77;;
1350;SDS011;669;50.206;9.998;2022-10-16T14:02:27;0.80;;;0.80;;
1350;SDS011;669;50.206;9.998;2022-10-16T14:05:02;0.30;;;0.30;;
1350;SDS011;669;50.206;9.998;2022-10-16T14:07:35;0.67;;;0.67;;
1350;SDS011;669;50.206;9.998;2022-10-16T14:10:04;1.00;;;0.83;;
1350;SDS011;669;50.206;9.998;2022-10-16T14:12:34;0.80;;;0.80;;
1350;SDS011;669;50.206;9.998;2022-10-16T14:15:02;1.60;;;0.77;;
1350;SDS011;669;50.206;9.998;2022-10-16T14:17:31;1.27;;;0.93;;
1350;SDS011;669;50.206;9.998;2022-10-16T14:20:04;0.70;;;0.70;;
1350;SDS011;669;50.206;9.998;2022-10-16T14:22:41;1.40;;;1.00;;
1350;SDS011;669;50.206;9.998;2022-10-16T14:25:20;0.60;;;0.60;;
1350;SDS011;669;50.206;9.998;2022-10-16T14:27:57;0.90;;;0.90;;
1350;SDS011;669;50.206;9.998;2022-10-16T14:30:27;0.80;;;0.80;;
1350;SDS011;669;50.206;9.998;2022-10-16T14:32:57;1.00;;;0.90;;
1350;SDS011;669;50.206;9.998;2022-10-16T14:35:29;0.70;;;0.70;;
1350;SDS011;669;50.206;9.998;2022-10-16T14:37:58;0.77;;;0.77;;
1350;SDS011;669;50.206;9.998;2022-10-16T14:40:28;2.23;;;1.00;;
1350;SDS011;669;50.206;9.998;2022-10-16T14:42:58;0.97;;;0.97;;
1350;SDS011;669;50.206;9.998;2022-10-16T14:45:28;0.90;;;0.90;;
1350;SDS011;669;50.206;9.998;2022-10-16T14:47:58;0.90;;;0.90;;
1350;SDS011;669;50.206;9.998;2022-10-16T14:50:31;1.57;;;0.60;;
1350;SDS011;669;50.206;9.998;2022-10-16T14:52:59;0.90;;;0.90;;
1350;SDS011;669;50.206;9.998;2022-10-16T14:55:27;0.77;;;0.77;;
1350;SDS011;669;50.206;9.998;2022-10-16T14:57:55;0.63;;;0.63;;
1350;SDS011;669;50.206;9.998;2022-10-16T15:00:26;1.50;;;1.20;;
1350;SDS011;669;50.206;9.998;2022-10-16T15:02:54;1.60;;;1.20;;
1350;SDS011;669;50.206;9.998;2022-10-16T15:05:22;0.67;;;0.67;;
1350;SDS011;669;50.206;9.998;2022-10-16T15:07:53;1.17;;;1.17;;
1350;SDS011;669;50.206;9.998;2022-10-16T15:10:22;0.87;;;0.87;;
1350;SDS011;669;50.206;9.998;2022-10-16T15:12:52;0.70;;;0.70;;
1350;SDS011;669;50.206;9.998;2022-10-16T15:15:25;0.80;;;0.80;;
1350;SDS011;669;50.206;9.998;2022-10-16T15:18:03;1.57;;;1.03;;
1350;SDS011;669;50.206;9.998;2022-10-16T15:20:33;2.50;;;0.90;;
1350;SDS011;669;50.206;9.998;2022-10-16T15:23:04;1.23;;;1.23;;
1350;SDS011;669;50.206;9.998;2022-10-16T15:25:35;1.00;;;1.00;;
1350;SDS011;669;50.206;9.998;2022-10-16T15:28:06;1.30;;;1.20;;
1350;SDS011;669;50.206;9.998;2022-10-16T15:30:35;0.80;;;0.80;;
1350;SDS011;669;50.206;9.998;2022-10-16T15:33:04;0.83;;;0.83;;
1350;SDS011;669;50.206;9.998;2022-10-16T15:35:37;0.90;;;0.90;;
1350;SDS011;669;50.206;9.998;2022-10-16T15:38:06;1.37;;;1.20;;
1350;SDS011;669;50.206;9.998;2022-10-16T15:40:35;0.90;;;0.90;;
1350;SDS011;669;50.206;9.998;2022-10-16T15:43:03;1.70;;;0.83;;
1350;SDS011;669;50.206;9.998;2022-10-16T15:45:31;2.43;;;0.97;;
1350;SDS011;669;50.206;9.998;2022-10-16T15:47:59;1.30;;;1.30;;
1350;SDS011;669;50.206;9.998;2022-10-16T15:50:27;0.80;;;0.80;;
1350;SDS011;669;50.206;9.998;2022-10-16T15:52:55;1.17;;;0.97;;
1350;SDS011;669;50.206;9.998;2022-10-16T15:55:24;1.20;;;1.10;;
1350;SDS011;669;50.206;9.998;2022-10-16T15:57:52;1.37;;;1.27;;
1350;SDS011;669;50.206;9.998;2022-10-16T16:00:20;0.97;;;0.97;;
1350;SDS011;669;50.206;9.998;2022-10-16T16:02:52;0.80;;;0.80;;
1350;SDS011;669;50.206;9.998;2022-10-16T16:05:21;0.83;;;0.80;;
1350;SDS011;669;50.206;9.998;2022-10-16T16:07:49;1.00;;;1.00;;